Time;durP1;ratioP1;P1;durP2;ratioP2;P2;SDS_P1;SDS_P2;PMS_P1;PMS_P2;Temp;Humidity;BMP_temperature;BMP_pressure;BME280_temperature;BME280_humidity;BME280_pressure;Samples;Min_cycle;Max_cycle;Signal;HPM_P1;HPM_P2
2023/07/21 00:01:43;;;;;;;3.25;1.30;;;;;;;-145.69;44.71;51743.38;5105660;28;20202;-86
2023/07/21 00:04:09;;;;;;;2.75;1.10;;;;;;;-145.69;44.78;51771.09;5100938;28;20629;-86
2023/07/21 00:06:36;;;;;;;1.30;1.20;;;;;;;-145.69;44.89;51743.38;5095681;28;20198;-86
2023/07/21 00:09:06;;;;;;;4.13;1.30;;;;;;;-145.69;45.24;51727.53;5096309;28;20209;-86
2023/07/21 00:11:33;;;;;;;1.63;1.30;;;;;;;-145.69;45.72;51751.31;5095340;28;20256;-85
2023/07/21 00:13:59;;;;;;;1.50;1.20;;;;;;;-145.69;46.24;51723.59;5099199;28;20229;-85
2023/07/21 00:16:27;;;;;;;1.60;1.20;;;;;;;-145.69;46.09;51767.16;5102738;28;20206;-85
2023/07/21 00:18:55;;;;;;;2.35;1.23;;;;;;;-145.69;46.99;51771.09;5109328;28;20228;-85
2023/07/21 00:21:22;;;;;;;2.08;1.30;;;;;;;-145.69;47.69;51743.38;5096956;28;20871;-85
2023/07/21 00:23:48;;;;;;;1.85;1.20;;;;;;;-145.69;47.55;51783.00;5097499;28;20204;-85
2023/07/21 00:26:17;;;;;;;5.43;1.50;;;;;;;-145.69;47.38;51767.16;5103025;28;20275;-86
2023/07/21 00:28:43;;;;;;;3.72;1.60;;;;;;;-145.69;47.37;51786.94;5100677;28;20205;-85
2023/07/21 00:31:10;;;;;;;3.13;1.48;;;;;;;-145.69;47.52;51751.31;5096881;28;20222;-86
2023/07/21 00:33:37;;;;;;;2.50;1.30;;;;;;;-145.69;47.58;51769.13;5097808;28;20205;-87
2023/07/21 00:36:05;;;;;;;2.10;1.20;;;;;;;-145.69;47.69;51731.50;5095659;28;20247;-87
2023/07/21 00:38:31;;;;;;;2.05;1.35;;;;;;;-145.69;47.75;51767.16;5103966;28;20270;-85
2023/07/21 00:41:00;;;;;;;5.63;1.73;;;;;;;-145.69;48.16;51769.13;5101736;28;20209;-86
2023/07/21 00:43:28;;;;;;;3.38;1.27;;;;;;;-145.69;48.75;51786.94;5095829;28;20194;-86
2023/07/21 00:45:55;;;;;;;6.00;1.27;;;;;;;-145.69;49.18;51767.16;5100652;28;20206;-86
2023/07/21 00:48:21;;;;;;;3.22;1.48;;;;;;;-145.69;49.99;51788.94;5099498;28;20202;-86
2023/07/21 00:50:51;;;;;;;2.00;1.38;;;;;;;-145.69;49.81;51800.81;5098432;28;20222;-85
2023/07/21 00:53:17;;;;;;;2.50;1.40;;;;;;;-145.69;49.65;51794.88;5093707;28;20202;-86
2023/07/21 00:55:47;;;;;;;9.40;1.60;;;;;;;-145.69;48.60;51755.25;5094342;28;20648;-86
2023/07/21 00:58:14;;;;;;;1.58;1.40;;;;;;;-145.69;48.84;51784.97;5094816;28;20201;-85
2023/07/21 01:00:42;;;;;;;2.97;1.35;;;;;;;-145.69;48.81;51786.94;5096640;28;20201;-86
2023/07/21 01:03:11;;;;;;;2.30;1.30;;;;;;;-145.69;48.45;51794.88;5100901;28;20206;-86
2023/07/21 01:05:46;;;;;;;3.03;1.50;;;;;;;-145.69;48.59;51777.03;5086938;28;20214;-86
2023/07/21 01:08:14;;;;;;;2.63;1.20;;;;;;;-145.69;48.85;51767.16;5095202;28;20205;-86
2023/07/21 01:10:42;;;;;;;1.95;1.50;;;;;;;-145.69;49.78;51771.09;5106859;28;20225;-86
2023/07/21 01:13:10;;;;;;;3.85;1.38;;;;;;;-145.69;50.11;51806.75;5086868;28;20918;-87
2023/07/21 01:15:40;;;;;;;2.00;1.17;;;;;;;-145.69;50.18;51765.16;5096445;28;20689;-84
2023/07/21 01:18:10;;;;;;;1.80;1.30;;;;;;;-145.69;50.06;51739.44;5095640;28;20284;-86
2023/07/21 01:20:38;;;;;;;3.22;1.50;;;;;;;-145.69;50.23;51775.06;5113704;28;20231;-87
2023/07/21 01:23:11;;;;;;;2.22;1.30;;;;;;;-145.69;50.15;51779.03;5094730;28;20209;-87
2023/07/21 01:25:42;;;;;;;4.72;1.80;;;;;;;-145.69;50.44;51771.09;5096166;28;20205;-85
2023/07/21 01:28:12;;;;;;;4.15;1.77;;;;;;;-145.69;50.17;51761.22;5098913;28;20198;-85
2023/07/21 01:30:40;;;;;;;1.70;1.38;;;;;;;-145.69;50.57;51802.78;5099087;28;20237;-84
2023/07/21 01:33:08;;;;;;;2.05;1.50;;;;;;;-145.69;48.25;51802.78;5096652;28;20225;-85
2023/07/21 01:35:37;;;;;;;2.95;1.10;;;;;;;-145.69;47.63;51753.28;5095645;28;20194;-87
2023/07/21 01:38:04;;;;;;;3.88;1.60;;;;;;;-145.69;46.66;51788.94;5093892;28;20206;-87
2023/07/21 01:40:32;;;;;;;4.53;1.52;;;;;;;-145.69;46.41;51751.31;5094202;28;20205;-85
2023/07/21 01:43:00;;;;;;;2.25;1.48;;;;;;;-145.69;46.25;51737.44;5091515;28;20647;-85
2023/07/21 01:45:26;;;;;;;2.55;1.20;;;;;;;-145.69;46.12;51755.25;5096380;28;20686;-85
2023/07/21 01:47:56;;;;;;;4.05;1.48;;;;;;;-145.69;46.26;51759.22;5097002;28;20205;-85
2023/07/21 01:50:24;;;;;;;1.92;1.25;;;;;;;-145.69;46.41;51757.25;5102732;28;20248;-87
2023/07/21 01:52:52;;;;;;;1.58;1.23;;;;;;;-145.69;46.42;51769.13;5108341;28;20203;-86
2023/07/21 01:55:23;;;;;;;5.15;1.35;;;;;;;-145.69;47.30;51781.00;5109240;28;20252;-85
2023/07/21 01:57:55;;;;;;;1.85;1.30;;;;;;;-145.69;47.92;51786.94;5108576;28;20198;-86
2023/07/21 02:00:25;;;;;;;2.95;1.42;;;;;;;-145.69;48.57;51802.78;5104570;28;20598;-84
2023/07/21 02:02:52;;;;;;;1.95;1.25;;;;;;;-145.69;48.39;51773.09;5109153;28;20206;-84
2023/07/21 02:05:20;;;;;;;2.55;1.42;;;;;;;-145.69;48.62;51767.16;5102724;28;20702;-84
2023/07/21 02:07:47;;;;;;;3.03;1.30;;;;;;;-145.69;48.89;51810.72;5096879;28;20290;-87
2023/07/21 02:10:13;;;;;;;4.15;1.55;;;;;;;-145.69;49.05;51802.78;5096208;28;20238;-86
2023/07/21 02:12:40;;;;;;;2.17;1.20;;;;;;;-145.69;48.79;51810.72;5096673;28;20633;-86
2023/07/21 02:15:07;;;;;;;1.75;1.17;;;;;;;-145.69;48.05;51786.94;5101695;28;20230;-86
2023/07/21 02:17:35;;;;;;;2.38;1.30;;;;;;;-145.69;47.51;51784.97;5103830;28;20198;-85
2023/07/21 02:20:07;;;;;;;2.90;1.33;;;;;;;-145.69;47.67;51779.03;5099998;28;20225;-87
2023/07/21 02:22:34;;;;;;;3.90;1.48;;;;;;;-145.69;47.79;51769.13;5100354;28;20455;-85
2023/07/21 02:25:00;;;;;;;3.90;1.70;;;;;;;-145.69;47.81;51806.75;5103388;28;20205;-87
2023/07/21 02:27:27;;;;;;;1.65;1.20;;;;;;;-145.69;47.42;51820.59;5102980;28;20198;-85
2023/07/21 02:29:53;;;;;;;2.28;1.48;;;;;;;-145.69;47.11;51786.94;5098804;28;20214;-85
2023/07/21 02:32:20;;;;;;;1.88;1.27;;;;;;;-145.69;47.44;51786.94;5101067;28;20229;-86
2023/07/21 02:34:51;;;;;;;2.58;1.55;;;;;;;-145.69;47.48;51786.94;5107013;28;20679;-87
2023/07/21 02:37:17;;;;;;;2.10;1.38;;;;;;;-145.69;48.02;51798.81;5104847;28;20209;-87
2023/07/21 02:39:44;;;;;;;2.83;1.38;;;;;;;-145.69;48.06;51802.78;5096069;28;20201;-86
2023/07/21 02:42:11;;;;;;;3.08;1.45;;;;;;;-145.69;47.94;51786.94;5096916;28;20256;-87
2023/07/21 02:44:37;;;;;;;4.93;1.40;;;;;;;-145.69;47.53;51790.91;5097511;28;20198;-86
2023/07/21 02:47:04;;;;;;;2.45;1.40;;;;;;;-145.69;47.60;51794.88;5096521;28;20202;-88
2023/07/21 02:49:31;;;;;;;3.90;1.52;;;;;;;-145.69;46.92;51786.94;5096758;28;20238;-87
2023/07/21 02:51:59;;;;;;;3.33;1.20;;;;;;;-145.69;46.41;51788.94;5096312;28;20649;-86
2023/07/21 02:54:25;;;;;;;4.00;1.38;;;;;;;-145.69;46.89;51822.59;5097865;28;20554;-86
2023/07/21 02:56:52;;;;;;;1.50;1.20;;;;;;;-145.69;47.12;51788.94;5100628;28;20194;-87
2023/07/21 02:59:20;;;;;;;3.80;1.50;;;;;;;-145.69;47.76;51790.91;5102184;28;20205;-87
2023/07/21 03:01:54;;;;;;;1.77;1.30;;;;;;;-145.69;47.55;51779.03;5103698;28;20312;-87
2023/07/21 03:04:21;;;;;;;4.30;1.48;;;;;;;-145.69;48.28;51802.78;5096820;28;20251;-86
2023/07/21 03:06:48;;;;;;;2.40;1.50;;;;;;;-145.69;48.58;51783.00;5095384;28;20288;-87
2023/07/21 03:09:16;;;;;;;3.67;1.52;;;;;;;-145.69;49.10;51796.84;5096439;28;20231;-87
2023/07/21 03:11:42;;;;;;;2.95;1.48;;;;;;;-145.69;49.33;51792.88;5095753;28;20599;-87
2023/07/21 03:14:10;;;;;;;3.28;1.38;;;;;;;-145.69;49.47;51816.66;5098837;28;20669;-86
2023/07/21 03:16:36;;;;;;;1.70;1.30;;;;;;;-145.69;49.75;51800.81;5095936;28;20258;-86
2023/07/21 03:19:03;;;;;;;3.77;1.40;;;;;;;-145.69;50.39;51788.94;5096595;28;20238;-87
2023/07/21 03:21:29;;;;;;;3.97;1.70;;;;;;;-145.69;50.42;51822.59;5098133;28;20221;-87
2023/07/21 03:23:57;;;;;;;3.35;1.70;;;;;;;-145.69;49.99;51808.72;5097527;28;20202;-87
2023/07/21 03:26:27;;;;;;;2.83;1.60;;;;;;;-145.69;49.64;51784.97;5096079;28;20284;-87
2023/07/21 03:28:54;;;;;;;2.23;1.13;;;;;;;-145.69;49.86;51834.47;5096107;28;20251;-87
2023/07/21 03:31:20;;;;;;;2.23;1.37;;;;;;;-145.69;49.88;51838.44;5096495;28;20199;-87
2023/07/21 03:33:47;;;;;;;4.23;1.30;;;;;;;-145.69;50.08;51810.72;5098013;28;20202;-86
2023/07/21 03:36:14;;;;;;;2.10;1.57;;;;;;;-145.69;50.19;51783.00;5097232;28;20232;-86
2023/07/21 03:38:41;;;;;;;5.57;1.43;;;;;;;-145.69;50.29;51826.56;5095577;28;20198;-86
2023/07/21 03:41:09;;;;;;;2.23;1.43;;;;;;;-145.69;49.70;51786.94;5095543;28;20651;-86
2023/07/21 03:43:37;;;;;;;3.57;1.40;;;;;;;-145.69;49.66;51828.53;5096974;28;20304;-86
2023/07/21 03:46:05;;;;;;;5.13;1.30;;;;;;;-145.69;50.16;51806.75;5095354;28;20226;-87
2023/07/21 03:48:33;;;;;;;2.33;1.37;;;;;;;-145.69;49.61;51838.44;5097337;28;20293;-86
2023/07/21 03:51:01;;;;;;;2.20;1.47;;;;;;;-145.69;49.35;51846.34;5098663;28;20212;-86
2023/07/21 03:53:28;;;;;;;3.43;1.80;;;;;;;-145.69;49.28;51826.56;5103108;28;20198;-86
2023/07/21 03:55:55;;;;;;;3.27;1.50;;;;;;;-145.69;48.95;51818.63;5103340;28;20197;-87
2023/07/21 03:58:22;;;;;;;2.30;1.43;;;;;;;-145.69;49.08;51820.59;5095062;28;20197;-87
2023/07/21 04:00:50;;;;;;;3.67;1.38;;;;;;;-145.69;48.90;51792.88;5096388;28;20202;-87
2023/07/21 04:03:18;;;;;;;8.85;1.70;;;;;;;-145.69;48.70;51802.78;5096506;28;20201;-87
2023/07/21 04:05:45;;;;;;;2.73;1.47;;;;;;;-145.69;47.67;51824.56;5095507;28;20202;-87
2023/07/21 04:08:11;;;;;;;5.03;1.90;;;;;;;-145.69;47.93;51763.19;5100882;28;20198;-86
2023/07/21 04:10:41;;;;;;;2.23;1.53;;;;;;;-145.69;47.49;51800.81;5103005;28;20247;-86
2023/07/21 04:13:08;;;;;;;5.10;1.70;;;;;;;-145.69;47.59;51812.69;5096071;28;20659;-86
2023/07/21 04:15:35;;;;;;;3.97;1.60;;;;;;;-145.69;48.32;51824.56;5094425;28;20556;-86
2023/07/21 04:18:03;;;;;;;3.30;1.43;;;;;;;-145.69;48.01;51806.75;5096483;28;20288;-86
2023/07/21 04:20:30;;;;;;;4.40;1.45;;;;;;;-145.69;49.21;51816.66;5094927;28;20202;-87
2023/07/21 04:22:56;;;;;;;3.65;1.50;;;;;;;-145.69;50.04;51798.81;5095325;28;20298;-86
2023/07/21 04:25:23;;;;;;;3.03;1.67;;;;;;;-145.69;49.50;51792.88;5096579;28;20198;-86
2023/07/21 04:27:50;;;;;;;2.55;1.60;;;;;;;-145.69;48.57;51808.72;5104583;28;20198;-86
2023/07/21 04:30:23;;;;;;;3.22;1.60;;;;;;;-145.69;49.53;51814.66;5101638;28;20612;-87
2023/07/21 04:32:50;;;;;;;2.22;1.40;;;;;;;-145.69;50.17;51784.97;5100481;28;20258;-87
2023/07/21 04:35:18;;;;;;;3.38;1.55;;;;;;;-145.69;49.83;51830.50;5098481;28;20545;-87
2023/07/21 04:37:44;;;;;;;2.92;1.58;;;;;;;-145.69;50.37;51828.53;5099104;28;20202;-87
2023/07/21 04:40:12;;;;;;;1.90;1.55;;;;;;;-145.69;49.50;51826.56;5124996;28;20197;-86
2023/07/21 04:42:38;;;;;;;5.50;2.00;;;;;;;-145.69;49.78;51826.56;5114550;28;20691;-87
2023/07/21 04:45:11;;;;;;;2.10;1.50;;;;;;;-145.69;49.88;51816.66;5119956;28;20201;-86
2023/07/21 04:47:38;;;;;;;2.63;1.30;;;;;;;-145.69;49.45;51820.59;5121908;28;20193;-87
2023/07/21 04:50:06;;;;;;;1.48;1.35;;;;;;;-145.69;48.82;51816.66;5130182;28;20205;-86
2023/07/21 04:52:46;;;;;;;5.28;1.60;;;;;;;-145.69;48.64;51818.63;5124158;28;20201;-86
2023/07/21 04:55:14;;;;;;;2.43;1.37;;;;;;;-145.69;48.72;51775.06;5118921;28;20262;-86
2023/07/21 04:57:42;;;;;;;4.30;1.40;;;;;;;-145.69;48.34;51838.44;5119485;28;20260;-85
2023/07/21 05:00:12;;;;;;;4.30;1.60;;;;;;;-145.69;48.39;51812.69;5108219;28;20653;-87
2023/07/21 05:02:39;;;;;;;1.73;1.33;;;;;;;-145.69;48.21;51806.75;5103556;28;20256;-87
2023/07/21 05:05:07;;;;;;;3.40;1.50;;;;;;;-145.69;48.06;51800.81;5101644;28;20205;-86
2023/07/21 05:07:34;;;;;;;3.80;1.65;;;;;;;-145.69;47.99;51802.78;5104105;28;20188;-86
2023/07/21 05:10:01;;;;;;;2.90;1.40;;;;;;;-145.69;47.83;51802.78;5101391;28;20224;-86
2023/07/21 05:12:28;;;;;;;2.58;1.40;;;;;;;-145.69;48.39;51826.56;5098703;28;20195;-87
2023/07/21 05:14:54;;;;;;;5.05;1.50;;;;;;;-145.69;48.08;51790.91;5101152;28;20233;-87
2023/07/21 05:17:21;;;;;;;1.88;1.55;;;;;;;-145.69;48.10;51814.66;5098799;28;20202;-87
2023/07/21 05:19:47;;;;;;;4.43;1.90;;;;;;;-145.69;48.08;51810.72;5097143;28;20205;-86
2023/07/21 05:22:15;;;;;;;3.88;1.50;;;;;;;-145.69;48.25;51798.81;5099273;28;20225;-86
2023/07/21 05:24:41;;;;;;;3.47;1.55;;;;;;;-145.69;48.24;51808.72;5101026;28;20686;-87
2023/07/21 05:27:22;;;;;;;3.90;1.80;;;;;;;-145.69;47.96;51794.88;5113533;28;20198;-87
2023/07/21 05:30:00;;;;;;;3.47;1.20;;;;;;;-145.69;47.53;51788.94;5120530;28;20217;-86
2023/07/21 05:32:29;;;;;;;2.65;1.10;;;;;;;-145.69;47.57;51794.88;5118881;28;20292;-86
2023/07/21 05:34:56;;;;;;;5.60;1.60;;;;;;;-145.69;47.53;51810.72;5119240;28;20209;-86
2023/07/21 05:37:22;;;;;;;2.50;1.42;;;;;;;-145.69;47.67;51794.88;5108550;28;20285;-88
2023/07/21 05:39:49;;;;;;;1.95;1.30;;;;;;;-145.69;48.42;51810.72;5099485;28;20289;-88
2023/07/21 05:42:17;;;;;;;2.55;1.35;;;;;;;-145.69;48.13;51779.03;5099705;28;20229;-87
2023/07/21 05:44:47;;;;;;;2.10;1.40;;;;;;;-145.69;47.35;51806.75;5105716;28;20194;-88
2023/07/21 05:47:14;;;;;;;3.63;1.30;;;;;;;-145.69;47.20;51802.78;5101506;28;20288;-88
2023/07/21 05:49:40;;;;;;;3.78;1.50;;;;;;;-145.69;47.01;51810.72;5103147;28;20263;-89
2023/07/21 05:52:08;;;;;;;1.67;1.42;;;;;;;-145.69;46.60;51775.06;5105584;28;20714;-88
2023/07/21 05:54:34;;;;;;;2.45;1.10;;;;;;;-145.69;46.16;51781.00;5111090;28;20213;-88
2023/07/21 05:57:01;;;;;;;3.45;1.30;;;;;;;-145.69;45.39;51779.03;5102102;28;21422;-87
2023/07/21 05:59:31;;;;;;;2.30;1.30;;;;;;;-145.69;45.13;51777.03;5097587;28;20220;-88
2023/07/21 06:01:58;;;;;;;5.20;1.63;;;;;;;-145.69;45.68;51765.16;5096682;28;20229;-88
2023/07/21 06:04:25;;;;;;;1.95;1.30;;;;;;;-145.69;45.79;51784.97;5096614;28;20198;-87
2023/07/21 06:06:53;;;;;;;4.72;1.42;;;;;;;-145.69;46.29;51749.31;5095654;28;20196;-88
2023/07/21 06:09:20;;;;;;;2.15;1.27;;;;;;;-145.69;47.00;51786.94;5078528;28;20199;-88
2023/07/21 06:11:46;;;;;;;1.48;1.25;;;;;;;-145.69;46.43;51779.03;5076625;28;20202;-87
2023/07/21 06:14:13;;;;;;;1.65;1.20;;;;;;;-145.69;46.50;51769.13;5076109;28;20241;-88
2023/07/21 06:16:41;;;;;;;2.33;1.33;;;;;;;-145.69;46.10;51771.09;5082672;28;20595;-87
2023/07/21 06:19:07;;;;;;;1.98;1.38;;;;;;;-145.69;45.98;51763.19;5097540;28;20277;-88
2023/07/21 06:21:35;;;;;;;1.58;1.40;;;;;;;-145.69;46.01;51755.25;5096690;28;20289;-88
2023/07/21 06:24:02;;;;;;;5.80;1.58;;;;;;;-145.69;46.49;51777.03;5096422;28;20202;-88
2023/07/21 06:26:28;;;;;;;1.05;0.90;;;;;;;-145.69;46.22;51779.03;5096323;28;20198;-88
2023/07/21 06:28:56;;;;;;;2.25;1.30;;;;;;;-145.69;46.99;51749.31;5097454;28;20205;-88
2023/07/21 06:31:23;;;;;;;2.38;1.42;;;;;;;-145.69;45.82;51759.22;5095629;28;20202;-86
2023/07/21 06:33:51;;;;;;;5.85;1.42;;;;;;;-145.69;45.05;51761.22;5095675;28;20251;-85
2023/07/21 06:36:18;;;;;;;5.28;1.40;;;;;;;-145.69;45.17;51779.03;5095404;28;20538;-85
2023/07/21 06:38:44;;;;;;;2.33;1.25;;;;;;;-145.69;45.65;51745.38;5097007;28;20198;-86
2023/07/21 06:41:11;;;;;;;3.25;1.23;;;;;;;-145.69;44.50;51743.38;5095832;28;20668;-83
2023/07/21 06:43:37;;;;;;;1.83;1.20;;;;;;;-145.69;41.59;51737.44;5095895;28;20230;-83
2023/07/21 06:46:05;;;;;;;1.05;0.90;;;;;;;-145.69;41.43;51757.25;5095644;28;20194;-83
2023/07/21 06:48:32;;;;;;;2.08;1.23;;;;;;;-145.69;40.85;51751.31;5094794;28;20198;-83
2023/07/21 06:51:00;;;;;;;1.75;1.17;;;;;;;-145.69;40.32;51743.38;5095107;28;20198;-83
2023/07/21 06:53:28;;;;;;;4.57;1.20;;;;;;;-145.69;40.16;51735.47;5095597;28;20657;-83
2023/07/21 06:55:54;;;;;;;1.95;1.40;;;;;;;-145.69;39.55;51747.34;5095918;28;20198;-86
2023/07/21 06:58:21;;;;;;;2.42;1.00;;;;;;;-145.69;39.64;51719.63;5095030;28;20202;-87
2023/07/21 07:00:47;;;;;;;1.80;1.10;;;;;;;-145.69;38.87;51731.50;5095350;28;20209;-86
2023/07/21 07:03:14;;;;;;;8.38;1.25;;;;;;;-145.69;38.14;51683.97;5095999;28;20236;-86
2023/07/21 07:05:45;;;;;;;2.58;1.30;;;;;;;-145.69;37.14;51695.88;5094940;28;20588;-86
2023/07/21 07:08:13;;;;;;;1.55;1.05;;;;;;;-145.69;37.06;51695.88;5095112;28;20202;-83
2023/07/21 07:10:40;;;;;;;3.13;1.40;;;;;;;-145.69;36.65;51660.22;5094328;28;20463;-83
2023/07/21 07:13:06;;;;;;;2.40;1.20;;;;;;;-145.69;36.14;51703.78;5094852;28;20194;-84
2023/07/21 07:15:33;;;;;;;2.28;1.10;;;;;;;-145.69;35.47;51693.88;5095465;28;20202;-84
2023/07/21 07:17:59;;;;;;;1.48;1.10;;;;;;;-145.69;34.32;51676.06;5094332;28;20202;-85
2023/07/21 07:20:26;;;;;;;5.07;1.38;;;;;;;-145.69;34.32;51642.41;5093061;28;20206;-85
2023/07/21 07:22:52;;;;;;;1.70;1.15;;;;;;;-145.69;34.05;51644.38;5097360;28;20268;-85
2023/07/21 07:25:24;;;;;;;1.30;0.93;;;;;;;-145.69;33.34;51640.44;5097349;28;20221;-85
2023/07/21 07:27:51;;;;;;;3.20;1.33;;;;;;;-145.69;33.72;51632.50;5095878;28;20197;-85
2023/07/21 07:30:18;;;;;;;1.35;1.00;;;;;;;-145.69;33.11;51652.31;5095072;28;20660;-86
2023/07/21 07:32:45;;;;;;;2.17;1.20;;;;;;;-145.69;33.57;51650.31;5095088;28;20526;-86
2023/07/21 07:35:12;;;;;;;1.65;0.82;;;;;;;-145.69;33.26;51662.22;5094483;28;20206;-85
2023/07/21 07:37:38;;;;;;;2.25;1.25;;;;;;;-145.69;33.44;51656.25;5094513;28;20201;-84
2023/07/21 07:40:06;;;;;;;2.40;1.00;;;;;;;-145.69;34.60;51640.44;5094150;28;20209;-85
2023/07/21 07:42:34;;;;;;;1.77;1.10;;;;;;;-145.69;34.24;51652.31;5090565;28;20226;-86
2023/07/21 07:45:01;;;;;;;1.65;1.00;;;;;;;-145.69;34.88;51687.94;5089388;28;20694;-84
2023/07/21 07:47:29;;;;;;;1.33;1.10;;;;;;;-145.69;34.44;51695.88;5089069;28;20205;-86
2023/07/21 07:49:55;;;;;;;2.55;1.17;;;;;;;-145.69;34.70;51664.19;5093501;28;20292;-83
2023/07/21 07:52:22;;;;;;;24.55;2.92;;;;;;;-145.69;34.83;51682.00;5092840;28;20206;-83
2023/07/21 07:54:49;;;;;;;39.45;5.93;;;;;;;-145.69;34.67;51695.88;5094635;28;20245;-85
2023/07/21 07:57:16;;;;;;;3.65;1.33;;;;;;;-145.69;34.70;51672.09;5094120;28;20656;-84
2023/07/21 07:59:44;;;;;;;4.45;1.33;;;;;;;-145.69;35.86;51668.16;5094895;28;20232;-84
2023/07/21 08:02:11;;;;;;;4.65;1.20;;;;;;;-145.69;35.78;51674.09;5093596;28;20265;-83
2023/07/21 08:04:37;;;;;;;4.95;1.35;;;;;;;-145.69;35.36;51683.97;5094993;28;20217;-86
2023/07/21 08:07:05;;;;;;;2.63;1.50;;;;;;;-145.69;35.98;51680.03;5097127;28;20201;-88
2023/07/21 08:09:31;;;;;;;4.90;1.55;;;;;;;-145.69;35.13;51670.13;5075165;28;20257;-85
2023/07/21 08:11:58;;;;;;;2.58;1.48;;;;;;;-145.69;34.51;51672.09;5074434;28;20606;-85
2023/07/21 08:14:24;;;;;;;3.42;1.38;;;;;;;-145.69;34.99;51670.13;5074184;28;20717;-85
2023/07/21 08:16:52;;;;;;;1.70;1.00;;;;;;;-145.69;35.37;51693.88;5080592;28;20190;-86
2023/07/21 08:19:20;;;;;;;4.28;1.67;;;;;;;-145.69;35.75;51683.97;5095112;28;20209;-84
2023/07/21 08:21:48;;;;;;;4.22;1.77;;;;;;;-145.69;35.04;51680.03;5095328;28;20580;-86
2023/07/21 08:24:14;;;;;;;2.95;1.30;;;;;;;-145.69;35.34;51691.91;5093812;28;20229;-85
2023/07/21 08:26:41;;;;;;;1.40;1.25;;;;;;;-145.69;35.11;51683.97;5076650;28;20190;-86
2023/07/21 08:29:09;;;;;;;3.95;1.48;;;;;;;-145.69;35.49;51668.16;5075907;28;20281;-87
2023/07/21 08:31:35;;;;;;;3.42;1.58;;;;;;;-145.69;36.01;51699.81;5074783;28;20207;-84
2023/07/21 08:34:03;;;;;;;3.97;1.48;;;;;;;-145.69;35.99;51670.13;5073158;28;20650;-86
2023/07/21 08:36:30;;;;;;;2.40;1.45;;;;;;;-145.69;34.73;51668.16;5073671;28;20205;-85
2023/07/21 08:38:56;;;;;;;2.38;1.30;;;;;;;-145.69;34.46;51687.94;5072980;28;20282;-85
2023/07/21 08:41:24;;;;;;;4.97;1.25;;;;;;;-145.69;34.54;51697.84;5072761;28;20594;-86
2023/07/21 08:43:51;;;;;;;2.10;1.23;;;;;;;-145.69;35.04;51670.13;5072239;28;20237;-85
2023/07/21 08:46:17;;;;;;;4.22;1.45;;;;;;;-145.69;35.07;51683.97;5072022;28;20226;-85
2023/07/21 08:48:44;;;;;;;4.28;1.48;;;;;;;-145.69;34.44;51646.38;5091338;28;20200;-85
2023/07/21 08:51:12;;;;;;;2.15;1.20;;;;;;;-145.69;33.51;51680.03;5092246;28;20209;-86
2023/07/21 08:53:40;;;;;;;2.58;1.48;;;;;;;-145.69;33.74;51648.34;5091978;28;20209;-86
2023/07/21 08:56:06;;;;;;;3.40;1.48;;;;;;;-145.69;33.68;51668.16;5095655;28;20277;-85
2023/07/21 08:58:33;;;;;;;2.80;1.30;;;;;;;-145.69;33.36;51632.50;5097661;28;20615;-86
2023/07/21 09:00:59;;;;;;;2.22;1.10;;;;;;;-145.69;33.31;51636.47;5097353;28;20210;-86
2023/07/21 09:03:27;;;;;;;4.30;1.35;;;;;;;-145.69;32.74;51632.50;5098597;28;20233;-86
2023/07/21 09:05:56;;;;;;;2.42;1.52;;;;;;;-145.69;32.38;51624.59;5097668;28;20288;-86
2023/07/21 09:08:26;;;;;;;2.30;1.50;;;;;;;-145.69;31.75;51624.59;5097726;28;20290;-85
2023/07/21 09:10:57;;;;;;;2.30;1.42;;;;;;;-145.69;31.55;51618.66;5099413;28;20223;-86
2023/07/21 09:13:25;;;;;;;2.30;1.27;;;;;;;-145.69;31.60;51616.66;5095310;28;20218;-85
2023/07/21 09:15:53;;;;;;;3.00;1.70;;;;;;;-145.69;31.62;51624.59;5097463;28;20263;-87
2023/07/21 09:18:25;;;;;;;3.42;1.50;;;;;;;-145.69;32.33;51640.44;5097510;28;20501;-85
2023/07/21 09:20:51;;;;;;;4.80;1.40;;;;;;;-145.69;32.23;51596.88;5097654;28;20200;-86
2023/07/21 09:23:19;;;;;;;2.45;1.50;;;;;;;-145.69;32.48;51612.72;5097032;28;20279;-85
2023/07/21 09:25:51;;;;;;;4.18;1.48;;;;;;;-145.69;31.91;51602.81;5100653;28;20271;-86
2023/07/21 09:28:18;;;;;;;2.28;1.42;;;;;;;-145.69;32.33;51624.59;5098315;28;20294;-86
2023/07/21 09:30:52;;;;;;;1.83;1.05;;;;;;;-145.69;31.87;51636.47;5099368;28;20202;-85
2023/07/21 09:33:25;;;;;;;3.42;1.40;;;;;;;-145.69;31.47;51628.53;5096960;28;20194;-85
2023/07/21 09:36:04;;;;;;;2.50;1.20;;;;;;;-145.69;31.29;51616.66;5097083;28;20687;-86
2023/07/21 09:38:31;;;;;;;5.03;1.50;;;;;;;-145.69;30.98;51618.66;5097100;28;20263;-85
2023/07/21 09:41:02;;;;;;;2.58;1.20;;;;;;;-145.69;31.27;51604.78;5097811;28;20193;-85
2023/07/21 09:43:29;;;;;;;2.30;1.50;;;;;;;-145.69;31.79;51565.19;5099566;28;20229;-85
2023/07/21 09:45:57;;;;;;;3.13;1.27;;;;;;;-145.69;30.98;51608.75;5096864;28;20197;-85
2023/07/21 09:48:24;;;;;;;1.92;1.20;;;;;;;-145.69;30.76;51624.59;5098618;28;20202;-85
2023/07/21 09:50:50;;;;;;;2.60;1.30;;;;;;;-145.69;30.66;51600.81;5097878;28;20202;-86
2023/07/21 09:53:21;;;;;;;3.90;1.42;;;;;;;-145.69;30.44;51594.88;5096675;28;20206;-86
2023/07/21 09:55:50;;;;;;;1.90;1.30;;;;;;;-145.69;30.48;51586.97;5097411;28;20258;-86
2023/07/21 09:58:22;;;;;;;3.10;1.40;;;;;;;-145.69;30.16;51594.88;5098042;28;20209;-85
2023/07/21 10:00:49;;;;;;;3.05;1.45;;;;;;;-145.69;30.11;51608.75;5099862;28;20206;-85
2023/07/21 10:03:16;;;;;;;2.75;1.20;;;;;;;-145.69;30.46;51577.06;5095617;28;20218;-85
2023/07/21 10:05:43;;;;;;;3.03;1.33;;;;;;;-145.69;30.26;51592.91;5096069;28;20205;-86
2023/07/21 10:08:10;;;;;;;6.97;1.50;;;;;;;-145.69;29.69;51584.97;5095731;28;20285;-85
2023/07/21 10:10:38;;;;;;;2.08;1.35;;;;;;;-145.69;29.69;51581.03;5097037;28;20202;-86
2023/07/21 10:13:07;;;;;;;5.18;1.40;;;;;;;-145.69;29.71;51575.09;5097126;28;20230;-86
2023/07/21 10:15:36;;;;;;;1.80;1.25;;;;;;;-145.69;29.69;51557.25;5096812;28;20254;-86
2023/07/21 10:18:06;;;;;;;2.35;1.40;;;;;;;-145.69;29.57;51537.47;5095525;28;20641;-85
2023/07/21 10:20:41;;;;;;;4.38;1.27;;;;;;;-145.69;29.05;51559.25;5090515;28;20696;-86
2023/07/21 10:23:09;;;;;;;3.72;1.33;;;;;;;-145.69;28.76;51545.38;5075515;28;20194;-87
2023/07/21 10:25:56;;;;;;;3.25;1.52;;;;;;;-145.69;27.98;51529.53;5078398;28;20260;-85
2023/07/21 10:28:24;;;;;;;1.98;1.38;;;;;;;-145.69;28.28;51529.53;5078658;28;20213;-87
2023/07/21 10:30:53;;;;;;;2.53;1.38;;;;;;;-145.69;27.86;51537.47;5075813;28;20215;-85
2023/07/21 10:33:21;;;;;;;2.33;1.10;;;;;;;-145.69;28.39;51497.88;5075371;28;20230;-85
2023/07/21 10:35:49;;;;;;;2.00;1.40;;;;;;;-145.69;28.00;51513.72;5076601;28;20726;-86
2023/07/21 10:38:24;;;;;;;4.45;1.25;;;;;;;-145.69;28.09;51525.59;5075306;28;20628;-85
2023/07/21 10:40:51;;;;;;;3.58;1.30;;;;;;;-145.69;28.17;51523.59;5077048;28;20205;-85
2023/07/21 10:43:17;;;;;;;4.03;1.20;;;;;;;-145.69;27.76;51529.53;5078099;28;20203;-86
2023/07/21 10:45:53;;;;;;;3.45;1.30;;;;;;;-145.69;27.84;51519.66;5075796;28;20361;-86
2023/07/21 10:48:21;;;;;;;3.15;1.52;;;;;;;-145.69;27.84;51527.56;5077025;28;20198;-87
2023/07/21 10:50:51;;;;;;;3.17;1.08;;;;;;;-145.69;28.37;51553.31;5076596;28;20248;-86
2023/07/21 10:53:18;;;;;;;1.65;1.33;;;;;;;-145.69;28.94;51559.25;5074098;28;20229;-83
2023/07/21 10:55:45;;;;;;;3.92;1.35;;;;;;;-145.69;28.81;51588.94;5079911;28;20224;-87
2023/07/21 10:58:12;;;;;;;1.98;1.20;;;;;;;-145.69;29.50;51567.16;5098154;28;20209;-86
2023/07/21 11:00:49;;;;;;;2.65;1.25;;;;;;;-145.69;29.64;51598.84;5096130;28;20236;-85
2023/07/21 11:03:20;;;;;;;5.65;1.45;;;;;;;-145.69;29.76;51569.16;5094620;28;20206;-85
2023/07/21 11:05:47;;;;;;;4.80;1.55;;;;;;;-145.69;29.64;51614.69;5100597;28;20243;-86
2023/07/21 11:08:24;;;;;;;2.17;1.10;;;;;;;-145.69;29.42;51612.72;5099621;28;20202;-84
2023/07/21 11:10:50;;;;;;;2.92;1.33;;;;;;;-145.69;29.56;51586.97;5101474;28;20206;-86
2023/07/21 11:13:20;;;;;;;2.47;1.38;;;;;;;-145.69;29.93;51577.06;5097761;28;20238;-85
2023/07/21 11:15:51;;;;;;;1.55;1.33;;;;;;;-145.69;30.00;51579.03;5098849;28;20216;-85
2023/07/21 11:18:20;;;;;;;2.53;1.33;;;;;;;-145.69;29.84;51565.19;5101131;28;20198;-86
2023/07/21 11:20:49;;;;;;;4.95;1.65;;;;;;;-145.69;29.37;51571.13;5097909;28;20213;-86